sensor_id;sensor_type;location;lat;lon;timestamp;P1;durP1;ratioP1;P2;durP2;ratioP2
71665;SDS011;59503;53.486;10.196;2023-04-03T00:01:02;6.03;;;1.40;;
71665;SDS011;59503;53.486;10.196;2023-04-03T00:03:27;5.78;;;1.30;;
71665;SDS011;59503;53.486;10.196;2023-04-03T00:05:53;8.67;;;1.80;;
71665;SDS011;59503;53.486;10.196;2023-04-03T00:08:19;7.43;;;1.57;;
71665;SDS011;59503;53.486;10.196;2023-04-03T00:10:44;5.63;;;1.60;;
71665;SDS011;59503;53.486;10.196;2023-04-03T00:13:10;5.93;;;1.50;;
71665;SDS011;59503;53.486;10.196;2023-04-03T00:15:37;11.10;;;1.60;;
71665;SDS011;59503;53.486;10.196;2023-04-03T00:18:03;12.65;;;1.67;;
71665;SDS011;59503;53.486;10.196;2023-04-03T00:20:29;12.48;;;1.90;;
71665;SDS011;59503;53.486;10.196;2023-04-03T00:22:54;7.30;;;1.63;;
71665;SDS011;59503;53.486;10.196;2023-04-03T00:25:20;5.40;;;1.20;;
71665;SDS011;59503;53.486;10.196;2023-04-03T00:27:46;3.43;;;1.17;;
71665;SDS011;59503;53.486;10.196;2023-04-03T00:30:13;9.52;;;1.30;;
71665;SDS011;59503;53.486;10.196;2023-04-03T00:32:40;5.80;;;1.50;;
71665;SDS011;59503;53.486;10.196;2023-04-03T00:35:06;4.93;;;1.27;;
71665;SDS011;59503;53.486;10.196;2023-04-03T00:37:31;7.53;;;1.63;;
71665;SDS011;59503;53.486;10.196;2023-04-03T00:39:57;4.83;;;1.13;;
71665;SDS011;59503;53.486;10.196;2023-04-03T00:42:23;9.77;;;1.50;;
71665;SDS011;59503;53.486;10.196;2023-04-03T00:47:16;7.33;;;1.63;;
71665;SDS011;59503;53.486;10.196;2023-04-03T00:49:42;7.07;;;1.33;;
71665;SDS011;59503;53.486;10.196;2023-04-03T00:52:10;6.53;;;1.20;;
71665;SDS011;59503;53.486;10.196;2023-04-03T00:54:38;8.23;;;1.80;;
71665;SDS011;59503;53.486;10.196;2023-04-03T00:57:06;7.57;;;1.55;;
71665;SDS011;59503;53.486;10.196;2023-04-03T00:59:33;9.50;;;1.80;;
71665;SDS011;59503;53.486;10.196;2023-04-03T01:02:03;6.57;;;1.60;;
71665;SDS011;59503;53.486;10.196;2023-04-03T01:04:33;6.20;;;1.73;;
71665;SDS011;59503;53.486;10.196;2023-04-03T01:07:05;7.28;;;1.60;;
71665;SDS011;59503;53.486;10.196;2023-04-03T01:09:33;7.07;;;1.30;;
71665;SDS011;59503;53.486;10.196;2023-04-03T01:15:06;7.20;;;1.67;;
71665;SDS011;59503;53.486;10.196;2023-04-03T01:17:47;9.68;;;1.92;;
71665;SDS011;59503;53.486;10.196;2023-04-03T01:25:36;4.85;;;1.50;;
71665;SDS011;59503;53.486;10.196;2023-04-03T01:28:01;10.18;;;1.95;;
71665;SDS011;59503;53.486;10.196;2023-04-03T01:30:30;6.35;;;1.27;;
71665;SDS011;59503;53.486;10.196;2023-04-03T01:32:59;8.27;;;1.55;;
71665;SDS011;59503;53.486;10.196;2023-04-03T01:35:25;10.30;;;1.60;;
71665;SDS011;59503;53.486;10.196;2023-04-03T01:37:50;10.03;;;2.10;;
71665;SDS011;59503;53.486;10.196;2023-04-03T01:40:16;10.50;;;1.88;;
71665;SDS011;59503;53.486;10.196;2023-04-03T01:42:41;11.67;;;2.03;;
71665;SDS011;59503;53.486;10.196;2023-04-03T01:45:07;9.35;;;1.55;;
71665;SDS011;59503;53.486;10.196;2023-04-03T01:47:33;9.13;;;1.77;;
71665;SDS011;59503;53.486;10.196;2023-04-03T01:49:58;7.32;;;1.25;;
71665;SDS011;59503;53.486;10.196;2023-04-03T01:52:23;7.90;;;1.73;;
71665;SDS011;59503;53.486;10.196;2023-04-03T01:54:49;5.93;;;1.70;;
71665;SDS011;59503;53.486;10.196;2023-04-03T01:57:15;8.00;;;1.98;;
71665;SDS011;59503;53.486;10.196;2023-04-03T01:59:41;4.68;;;1.63;;
71665;SDS011;59503;53.486;10.196;2023-04-03T02:02:06;12.63;;;1.73;;
71665;SDS011;59503;53.486;10.196;2023-04-03T02:04:32;13.70;;;1.97;;
71665;SDS011;59503;53.486;10.196;2023-04-03T02:06:57;13.55;;;2.08;;
71665;SDS011;59503;53.486;10.196;2023-04-03T02:09:23;6.00;;;1.80;;
71665;SDS011;59503;53.486;10.196;2023-04-03T02:11:48;6.87;;;1.53;;
71665;SDS011;59503;53.486;10.196;2023-04-03T02:14:14;5.57;;;1.37;;
71665;SDS011;59503;53.486;10.196;2023-04-03T02:16:39;7.57;;;1.50;;
71665;SDS011;59503;53.486;10.196;2023-04-03T02:19:05;9.50;;;1.23;;
71665;SDS011;59503;53.486;10.196;2023-04-03T02:21:31;8.40;;;1.70;;
71665;SDS011;59503;53.486;10.196;2023-04-03T02:23:56;6.00;;;1.50;;
71665;SDS011;59503;53.486;10.196;2023-04-03T02:26:21;6.13;;;1.07;;
71665;SDS011;59503;53.486;10.196;2023-04-03T02:28:47;11.43;;;1.50;;
71665;SDS011;59503;53.486;10.196;2023-04-03T02:31:12;10.18;;;1.42;;
71665;SDS011;59503;53.486;10.196;2023-04-03T02:33:38;7.63;;;1.70;;
71665;SDS011;59503;53.486;10.196;2023-04-03T02:36:04;4.90;;;1.07;;
71665;SDS011;59503;53.486;10.196;2023-04-03T02:38:30;3.75;;;1.25;;
71665;SDS011;59503;53.486;10.196;2023-04-03T02:41:03;6.77;;;1.40;;
71665;SDS011;59503;53.486;10.196;2023-04-03T02:43:30;6.32;;;1.20;;
71665;SDS011;59503;53.486;10.196;2023-04-03T02:45:55;8.90;;;1.10;;
71665;SDS011;59503;53.486;10.196;2023-04-03T02:48:21;4.57;;;1.20;;
71665;SDS011;59503;53.486;10.196;2023-04-03T02:50:47;6.47;;;1.42;;
71665;SDS011;59503;53.486;10.196;2023-04-03T02:53:13;9.73;;;1.63;;
71665;SDS011;59503;53.486;10.196;2023-04-03T02:55:38;5.67;;;1.33;;
71665;SDS011;59503;53.486;10.196;2023-04-03T02:58:03;5.47;;;1.70;;
71665;SDS011;59503;53.486;10.196;2023-04-03T03:00:29;6.97;;;1.38;;
71665;SDS011;59503;53.486;10.196;2023-04-03T03:02:55;9.33;;;1.53;;
71665;SDS011;59503;53.486;10.196;2023-04-03T03:05:21;10.98;;;1.70;;
71665;SDS011;59503;53.486;10.196;2023-04-03T03:07:47;8.32;;;1.23;;
71665;SDS011;59503;53.486;10.196;2023-04-03T03:10:13;7.45;;;1.60;;
71665;SDS011;59503;53.486;10.196;2023-04-03T03:12:38;3.77;;;1.17;;
71665;SDS011;59503;53.486;10.196;2023-04-03T03:15:05;9.23;;;2.03;;
71665;SDS011;59503;53.486;10.196;2023-04-03T03:17:31;4.05;;;1.20;;
71665;SDS011;59503;53.486;10.196;2023-04-03T03:19:57;4.53;;;1.47;;
71665;SDS011;59503;53.486;10.196;2023-04-03T03:22:22;10.37;;;1.50;;
71665;SDS011;59503;53.486;10.196;2023-04-03T03:24:47;6.28;;;1.27;;
71665;SDS011;59503;53.486;10.196;2023-04-03T03:27:13;5.33;;;1.17;;
71665;SDS011;59503;53.486;10.196;2023-04-03T03:29:38;4.93;;;1.17;;
71665;SDS011;59503;53.486;10.196;2023-04-03T03:32:04;9.00;;;1.40;;
71665;SDS011;59503;53.486;10.196;2023-04-03T03:34:29;7.05;;;1.60;;
71665;SDS011;59503;53.486;10.196;2023-04-03T03:36:55;8.67;;;1.37;;
71665;SDS011;59503;53.486;10.196;2023-04-03T03:39:20;10.27;;;1.60;;
71665;SDS011;59503;53.486;10.196;2023-04-03T03:41:46;5.88;;;1.15;;
71665;SDS011;59503;53.486;10.196;2023-04-03T03:44:12;7.38;;;1.30;;
71665;SDS011;59503;53.486;10.196;2023-04-03T03:46:37;6.80;;;1.20;;
71665;SDS011;59503;53.486;10.196;2023-04-03T03:49:03;8.20;;;1.60;;
71665;SDS011;59503;53.486;10.196;2023-04-03T03:51:28;5.78;;;1.10;;
71665;SDS011;59503;53.486;10.196;2023-04-03T03:53:54;6.93;;;1.70;;
71665;SDS011;59503;53.486;10.196;2023-04-03T03:56:19;6.30;;;1.30;;
71665;SDS011;59503;53.486;10.196;2023-04-03T03:58:45;9.32;;;1.65;;
71665;SDS011;59503;53.486;10.196;2023-04-03T04:01:10;6.60;;;1.40;;
71665;SDS011;59503;53.486;10.196;2023-04-03T04:03:36;4.73;;;1.37;;
71665;SDS011;59503;53.486;10.196;2023-04-03T04:06:02;5.13;;;1.40;;
71665;SDS011;59503;53.486;10.196;2023-04-03T04:08:27;13.73;;;1.40;;
71665;SDS011;59503;53.486;10.196;2023-04-03T04:10:53;6.78;;;1.65;;
71665;SDS011;59503;53.486;10.196;2023-04-03T04:13:18;5.63;;;1.20;;
71665;SDS011;59503;53.486;10.196;2023-04-03T04:15:44;4.23;;;1.17;;
71665;SDS011;59503;53.486;10.196;2023-04-03T04:18:09;4.75;;;1.13;;
71665;SDS011;59503;53.486;10.196;2023-04-03T04:20:35;10.20;;;1.80;;
71665;SDS011;59503;53.486;10.196;2023-04-03T04:23:00;6.70;;;1.53;;
71665;SDS011;59503;53.486;10.196;2023-04-03T04:25:26;12.10;;;1.25;;
71665;SDS011;59503;53.486;10.196;2023-04-03T04:27:51;7.87;;;1.50;;
71665;SDS011;59503;53.486;10.196;2023-04-03T04:30:17;9.87;;;1.53;;
71665;SDS011;59503;53.486;10.196;2023-04-03T04:32:42;10.80;;;1.48;;
71665;SDS011;59503;53.486;10.196;2023-04-03T04:35:08;6.73;;;1.37;;
71665;SDS011;59503;53.486;10.196;2023-04-03T04:37:33;14.50;;;1.60;;
71665;SDS011;59503;53.486;10.196;2023-04-03T04:39:59;6.23;;;1.47;;
71665;SDS011;59503;53.486;10.196;2023-04-03T04:42:24;8.03;;;1.50;;
71665;SDS011;59503;53.486;10.196;2023-04-03T04:44:50;4.83;;;1.00;;
71665;SDS011;59503;53.486;10.196;2023-04-03T04:47:15;3.53;;;1.30;;
71665;SDS011;59503;53.486;10.196;2023-04-03T04:49:41;5.83;;;1.40;;
71665;SDS011;59503;53.486;10.196;2023-04-03T04:52:06;8.07;;;1.70;;
71665;SDS011;59503;53.486;10.196;2023-04-03T04:54:32;7.10;;;1.90;;
71665;SDS011;59503;53.486;10.196;2023-04-03T04:56:57;5.47;;;1.43;;
71665;SDS011;59503;53.486;10.196;2023-04-03T04:59:23;10.35;;;1.80;;
71665;SDS011;59503;53.486;10.196;2023-04-03T05:01:48;5.20;;;1.40;;
71665;SDS011;59503;53.486;10.196;2023-04-03T05:04:14;7.90;;;1.83;;
71665;SDS011;59503;53.486;10.196;2023-04-03T05:06:40;9.63;;;1.52;;
71665;SDS011;59503;53.486;10.196;2023-04-03T05:09:05;7.20;;;1.47;;
71665;SDS011;59503;53.486;10.196;2023-04-03T05:11:31;15.07;;;2.20;;
71665;SDS011;59503;53.486;10.196;2023-04-03T05:13:57;6.55;;;1.50;;
71665;SDS011;59503;53.486;10.196;2023-04-03T05:16:22;9.83;;;1.80;;
71665;SDS011;59503;53.486;10.196;2023-04-03T05:18:48;6.70;;;1.80;;
71665;SDS011;59503;53.486;10.196;2023-04-03T05:21:13;7.37;;;1.67;;
71665;SDS011;59503;53.486;10.196;2023-04-03T05:23:38;8.90;;;1.90;;
71665;SDS011;59503;53.486;10.196;2023-04-03T05:26:04;8.15;;;2.58;;
71665;SDS011;59503;53.486;10.196;2023-04-03T05:28:29;9.57;;;2.03;;
71665;SDS011;59503;53.486;10.196;2023-04-03T05:30:58;7.17;;;2.00;;
71665;SDS011;59503;53.486;10.196;2023-04-03T05:33:24;9.87;;;2.30;;
71665;SDS011;59503;53.486;10.196;2023-04-03T05:35:51;12.18;;;2.75;;
71665;SDS011;59503;53.486;10.196;2023-04-03T05:38:17;9.25;;;2.00;;
71665;SDS011;59503;53.486;10.196;2023-04-03T05:40:43;11.93;;;2.40;;
71665;SDS011;59503;53.486;10.196;2023-04-03T05:43:09;6.73;;;2.50;;
71665;SDS011;59503;53.486;10.196;2023-04-03T05:45:35;7.15;;;2.35;;
71665;SDS011;59503;53.486;10.196;2023-04-03T05:48:00;7.77;;;2.27;;
71665;SDS011;59503;53.486;10.196;2023-04-03T05:50:26;8.43;;;2.43;;
71665;SDS011;59503;53.486;10.196;2023-04-03T05:52:51;13.47;;;2.97;;
71665;SDS011;59503;53.486;10.196;2023-04-03T05:55:20;8.57;;;2.10;;
71665;SDS011;59503;53.486;10.196;2023-04-03T05:57:45;5.90;;;2.00;;
71665;SDS011;59503;53.486;10.196;2023-04-03T06:00:15;13.93;;;3.20;;
71665;SDS011;59503;53.486;10.196;2023-04-03T06:02:41;7.53;;;2.25;;
71665;SDS011;59503;53.486;10.196;2023-04-03T06:05:07;7.25;;;2.25;;
71665;SDS011;59503;53.486;10.196;2023-04-03T06:07:33;11.97;;;2.10;;
71665;SDS011;59503;53.486;10.196;2023-04-03T06:09:59;7.57;;;2.30;;
71665;SDS011;59503;53.486;10.196;2023-04-03T06:12:25;7.93;;;2.00;;
71665;SDS011;59503;53.486;10.196;2023-04-03T06:14:50;5.23;;;2.00;;
71665;SDS011;59503;53.486;10.196;2023-04-03T06:17:16;5.73;;;1.93;;
71665;SDS011;59503;53.486;10.196;2023-04-03T06:19:43;10.27;;;1.98;;
71665;SDS011;59503;53.486;10.196;2023-04-03T06:22:08;6.90;;;1.92;;
71665;SDS011;59503;53.486;10.196;2023-04-03T06:24:34;7.63;;;2.60;;
71665;SDS011;59503;53.486;10.196;2023-04-03T06:27:00;8.00;;;2.03;;
71665;SDS011;59503;53.486;10.196;2023-04-03T06:29:26;8.87;;;2.33;;
71665;SDS011;59503;53.486;10.196;2023-04-03T06:31:51;6.83;;;2.20;;
71665;SDS011;59503;53.486;10.196;2023-04-03T06:34:17;9.70;;;2.37;;
71665;SDS011;59503;53.486;10.196;2023-04-03T06:36:43;4.63;;;1.52;;
71665;SDS011;59503;53.486;10.196;2023-04-03T06:39:17;6.97;;;1.80;;
71665;SDS011;59503;53.486;10.196;2023-04-03T06:41:48;7.95;;;2.20;;
71665;SDS011;59503;53.486;10.196;2023-04-03T06:44:14;6.60;;;1.80;;
71665;SDS011;59503;53.486;10.196;2023-04-03T06:46:41;4.22;;;1.13;;
71665;SDS011;59503;53.486;10.196;2023-04-03T06:49:07;4.38;;;1.10;;
71665;SDS011;59503;53.486;10.196;2023-04-03T06:51:33;6.97;;;1.03;;
71665;SDS011;59503;53.486;10.196;2023-04-03T06:53:59;8.85;;;1.35;;
71665;SDS011;59503;53.486;10.196;2023-04-03T06:56:25;3.08;;;0.80;;
71665;SDS011;59503;53.486;10.196;2023-04-03T06:58:51;6.38;;;1.10;;
71665;SDS011;59503;53.486;10.196;2023-04-03T07:01:19;6.60;;;1.33;;
71665;SDS011;59503;53.486;10.196;2023-04-03T07:03:46;4.93;;;1.30;;
71665;SDS011;59503;53.486;10.196;2023-04-03T07:06:13;6.25;;;1.23;;
71665;SDS011;59503;53.486;10.196;2023-04-03T07:08:40;6.40;;;1.25;;
71665;SDS011;59503;53.486;10.196;2023-04-03T07:11:05;4.95;;;1.02;;
71665;SDS011;59503;53.486;10.196;2023-04-03T07:13:31;5.10;;;1.17;;
71665;SDS011;59503;53.486;10.196;2023-04-03T07:15:57;6.53;;;1.10;;
71665;SDS011;59503;53.486;10.196;2023-04-03T07:18:23;6.68;;;1.00;;
71665;SDS011;59503;53.486;10.196;2023-04-03T07:20:49;7.22;;;0.90;;
71665;SDS011;59503;53.486;10.196;2023-04-03T07:23:15;5.70;;;0.80;;
71665;SDS011;59503;53.486;10.196;2023-04-03T07:25:44;2.10;;;0.63;;
71665;SDS011;59503;53.486;10.196;2023-04-03T07:28:11;2.30;;;0.60;;
71665;SDS011;59503;53.486;10.196;2023-04-03T07:31:10;3.25;;;0.80;;
71665;SDS011;59503;53.486;10.196;2023-04-03T07:33:30;4.70;;;1.73;;
71665;SDS011;59503;53.486;10.196;2023-04-03T07:35:56;3.65;;;0.60;;
71665;SDS011;59503;53.486;10.196;2023-04-03T07:38:22;1.53;;;0.50;;
71665;SDS011;59503;53.486;10.196;2023-04-03T07:40:48;3.20;;;0.60;;
71665;SDS011;59503;53.486;10.196;2023-04-03T07:43:15;3.10;;;0.80;;
71665;SDS011;59503;53.486;10.196;2023-04-03T07:45:41;1.83;;;0.50;;
71665;SDS011;59503;53.486;10.196;2023-04-03T07:48:06;1.55;;;0.60;;
71665;SDS011;59503;53.486;10.196;2023-04-03T07:50:32;3.30;;;0.50;;
71665;SDS011;59503;53.486;10.196;2023-04-03T07:52:58;2.70;;;0.80;;
71665;SDS011;59503;53.486;10.196;2023-04-03T07:55:23;4.70;;;0.80;;
71665;SDS011;59503;53.486;10.196;2023-04-03T07:57:50;3.65;;;0.63;;
71665;SDS011;59503;53.486;10.196;2023-04-03T08:00:16;5.95;;;0.70;;
71665;SDS011;59503;53.486;10.196;2023-04-03T08:02:43;4.10;;;0.50;;
71665;SDS011;59503;53.486;10.196;2023-04-03T08:05:09;4.37;;;0.60;;
71665;SDS011;59503;53.486;10.196;2023-04-03T08:07:36;2.90;;;0.60;;
71665;SDS011;59503;53.486;10.196;2023-04-03T08:10:02;5.20;;;0.60;;
71665;SDS011;59503;53.486;10.196;2023-04-03T08:12:28;2.05;;;0.63;;
71665;SDS011;59503;53.486;10.196;2023-04-03T08:14:55;2.87;;;0.50;;
71665;SDS011;59503;53.486;10.196;2023-04-03T08:17:20;3.20;;;0.57;;
71665;SDS011;59503;53.486;10.196;2023-04-03T08:19:46;2.75;;;0.45;;
71665;SDS011;59503;53.486;10.196;2023-04-03T08:22:12;2.37;;;0.60;;
71665;SDS011;59503;53.486;10.196;2023-04-03T08:24:37;3.90;;;0.70;;
71665;SDS011;59503;53.486;10.196;2023-04-03T08:27:02;1.40;;;0.60;;
71665;SDS011;59503;53.486;10.196;2023-04-03T08:29:28;3.77;;;0.87;;
71665;SDS011;59503;53.486;10.196;2023-04-03T08:31:53;3.93;;;0.97;;
71665;SDS011;59503;53.486;10.196;2023-04-03T08:34:19;1.50;;;0.50;;
71665;SDS011;59503;53.486;10.196;2023-04-03T08:36:45;1.90;;;0.70;;
71665;SDS011;59503;53.486;10.196;2023-04-03T08:39:11;2.23;;;0.70;;
71665;SDS011;59503;53.486;10.196;2023-04-03T08:41:43;3.10;;;0.85;;
71665;SDS011;59503;53.486;10.196;2023-04-03T08:47:10;3.00;;;0.60;;
71665;SDS011;59503;53.486;10.196;2023-04-03T08:49:44;7.63;;;1.17;;
71665;SDS011;59503;53.486;10.196;2023-04-03T08:52:18;1.42;;;0.40;;
71665;SDS011;59503;53.486;10.196;2023-04-03T08:54:52;0.88;;;0.50;;
71665;SDS011;59503;53.486;10.196;2023-04-03T08:57:26;1.55;;;0.55;;
71665;SDS011;59503;53.486;10.196;2023-04-03T08:59:56;2.63;;;0.70;;
71665;SDS011;59503;53.486;10.196;2023-04-03T09:02:52;2.85;;;0.55;;
71665;SDS011;59503;53.486;10.196;2023-04-03T09:08:10;1.92;;;0.50;;
71665;SDS011;59503;53.486;10.196;2023-04-03T09:10:47;2.17;;;0.60;;
71665;SDS011;59503;53.486;10.196;2023-04-03T09:15:56;2.53;;;0.52;;
71665;SDS011;59503;53.486;10.196;2023-04-03T09:18:44;2.08;;;0.50;;
71665;SDS011;59503;53.486;10.196;2023-04-03T09:21:16;1.38;;;0.60;;
71665;SDS011;59503;53.486;10.196;2023-04-03T09:23:59;2.20;;;0.60;;
71665;SDS011;59503;53.486;10.196;2023-04-03T09:26:30;2.50;;;0.50;;
71665;SDS011;59503;53.486;10.196;2023-04-03T09:29:02;1.65;;;0.50;;
71665;SDS011;59503;53.486;10.196;2023-04-03T09:31:38;2.28;;;0.50;;
71665;SDS011;59503;53.486;10.196;2023-04-03T09:34:08;1.50;;;0.50;;
71665;SDS011;59503;53.486;10.196;2023-04-03T09:36:41;1.60;;;0.57;;
71665;SDS011;59503;53.486;10.196;2023-04-03T09:39:14;3.10;;;0.63;;
71665;SDS011;59503;53.486;10.196;2023-04-03T09:41:55;3.42;;;0.65;;
71665;SDS011;59503;53.486;10.196;2023-04-03T09:44:26;2.03;;;0.50;;
71665;SDS011;59503;53.486;10.196;2023-04-03T09:46:53;2.38;;;0.68;;
71665;SDS011;59503;53.486;10.196;2023-04-03T09:49:19;3.17;;;0.50;;
71665;SDS011;59503;53.486;10.196;2023-04-03T09:51:45;2.55;;;0.70;;
71665;SDS011;59503;53.486;10.196;2023-04-03T09:54:24;2.08;;;0.50;;
71665;SDS011;59503;53.486;10.196;2023-04-03T09:56:50;2.50;;;0.60;;
71665;SDS011;59503;53.486;10.196;2023-04-03T09:59:18;1.25;;;0.60;;
71665;SDS011;59503;53.486;10.196;2023-04-03T10:01:57;1.95;;;0.50;;
71665;SDS011;59503;53.486;10.196;2023-04-03T10:04:42;1.98;;;0.60;;
71665;SDS011;59503;53.486;10.196;2023-04-03T10:09:55;1.73;;;0.52;;
71665;SDS011;59503;53.486;10.196;2023-04-03T10:12:22;2.63;;;0.40;;
71665;SDS011;59503;53.486;10.196;2023-04-03T10:14:55;3.03;;;0.50;;
71665;SDS011;59503;53.486;10.196;2023-04-03T10:17:45;1.92;;;0.68;;
71665;SDS011;59503;53.486;10.196;2023-04-03T10:20:36;2.15;;;0.60;;
71665;SDS011;59503;53.486;10.196;2023-04-03T10:23:18;2.90;;;0.75;;
71665;SDS011;59503;53.486;10.196;2023-04-03T10:28:31;2.35;;;0.85;;
71665;SDS011;59503;53.486;10.196;2023-04-03T10:34:06;3.17;;;0.77;;
71665;SDS011;59503;53.486;10.196;2023-04-03T10:36:44;2.90;;;0.60;;
71665;SDS011;59503;53.486;10.196;2023-04-03T10:42:14;3.00;;;0.63;;
71665;SDS011;59503;53.486;10.196;2023-04-03T10:57:09;1.35;;;0.57;;
71665;SDS011;59503;53.486;10.196;2023-04-03T10:59:32;5.38;;;0.47;;
71665;SDS011;59503;53.486;10.196;2023-04-03T11:05:36;1.42;;;0.40;;
71665;SDS011;59503;53.486;10.196;2023-04-03T11:07:43;3.07;;;0.50;;
71665;SDS011;59503;53.486;10.196;2023-04-03T11:10:55;1.95;;;0.80;;
71665;SDS011;59503;53.486;10.196;2023-04-03T11:15:58;1.95;;;0.60;;
71665;SDS011;59503;53.486;10.196;2023-04-03T11:18:28;2.73;;;0.93;;
71665;SDS011;59503;53.486;10.196;2023-04-03T11:23:39;2.55;;;0.60;;
71665;SDS011;59503;53.486;10.196;2023-04-03T11:26:10;4.00;;;0.70;;
71665;SDS011;59503;53.486;10.196;2023-04-03T11:28:38;6.60;;;0.65;;
71665;SDS011;59503;53.486;10.196;2023-04-03T11:31:14;3.43;;;0.50;;
71665;SDS011;59503;53.486;10.196;2023-04-03T11:36:26;1.50;;;0.47;;
71665;SDS011;59503;53.486;10.196;2023-04-03T11:38:57;2.25;;;0.50;;
71665;SDS011;59503;53.486;10.196;2023-04-03T11:41:30;2.88;;;0.60;;
71665;SDS011;59503;53.486;10.196;2023-04-03T11:43:58;2.17;;;0.47;;
71665;SDS011;59503;53.486;10.196;2023-04-03T11:57:46;3.80;;;1.73;;
71665;SDS011;59503;53.486;10.196;2023-04-03T12:13:39;4.55;;;0.65;;
71665;SDS011;59503;53.486;10.196;2023-04-03T12:21:20;2.33;;;0.40;;
71665;SDS011;59503;53.486;10.196;2023-04-03T12:26:22;1.95;;;0.52;;
71665;SDS011;59503;53.486;10.196;2023-04-03T12:28:52;4.93;;;0.63;;
71665;SDS011;59503;53.486;10.196;2023-04-03T12:31:19;4.50;;;0.60;;
71665;SDS011;59503;53.486;10.196;2023-04-03T12:34:49;3.63;;;0.70;;
71665;SDS011;59503;53.486;10.196;2023-04-03T12:36:58;2.17;;;0.60;;
71665;SDS011;59503;53.486;10.196;2023-04-03T12:47:46;4.03;;;0.60;;
71665;SDS011;59503;53.486;10.196;2023-04-03T12:50:18;3.70;;;0.40;;
71665;SDS011;59503;53.486;10.196;2023-04-03T12:53:05;1.75;;;0.88;;
71665;SDS011;59503;53.486;10.196;2023-04-03T12:55:36;2.60;;;0.73;;
71665;SDS011;59503;53.486;10.196;2023-04-03T13:01:00;2.13;;;0.50;;
71665;SDS011;59503;53.486;10.196;2023-04-03T13:03:34;2.78;;;0.40;;
71665;SDS011;59503;53.486;10.196;2023-04-03T13:06:03;2.45;;;0.68;;
71665;SDS011;59503;53.486;10.196;2023-04-03T13:08:29;2.75;;;0.40;;
71665;SDS011;59503;53.486;10.196;2023-04-03T13:11:03;3.55;;;0.80;;
71665;SDS011;59503;53.486;10.196;2023-04-03T13:13:32;3.27;;;0.50;;
71665;SDS011;59503;53.486;10.196;2023-04-03T13:15:58;1.67;;;0.52;;
71665;SDS011;59503;53.486;10.196;2023-04-03T13:18:24;3.37;;;0.50;;
71665;SDS011;59503;53.486;10.196;2023-04-03T13:20:53;2.88;;;0.60;;
71665;SDS011;59503;53.486;10.196;2023-04-03T13:23:23;3.10;;;0.60;;
71665;SDS011;59503;53.486;10.196;2023-04-03T13:25:49;2.30;;;0.40;;
71665;SDS011;59503;53.486;10.196;2023-04-03T13:28:20;1.25;;;0.50;;
71665;SDS011;59503;53.486;10.196;2023-04-03T13:31:02;2.80;;;0.50;;
71665;SDS011;59503;53.486;10.196;2023-04-03T13:33:39;2.17;;;0.60;;
71665;SDS011;59503;53.486;10.196;2023-04-03T13:36:17;3.27;;;0.70;;
71665;SDS011;59503;53.486;10.196;2023-04-03T13:38:57;1.50;;;0.40;;
71665;SDS011;59503;53.486;10.196;2023-04-03T13:41:32;2.53;;;0.40;;
71665;SDS011;59503;53.486;10.196;2023-04-03T13:46:51;1.40;;;0.60;;
71665;SDS011;59503;53.486;10.196;2023-04-03T13:49:20;3.10;;;0.50;;
71665;SDS011;59503;53.486;10.196;2023-04-03T13:52:23;1.70;;;0.50;;
71665;SDS011;59503;53.486;10.196;2023-04-03T13:54:57;5.07;;;0.65;;
71665;SDS011;59503;53.486;10.196;2023-04-03T13:57:28;1.58;;;0.60;;
71665;SDS011;59503;53.486;10.196;2023-04-03T13:59:54;2.70;;;0.60;;
71665;SDS011;59503;53.486;10.196;2023-04-03T14:02:29;2.30;;;0.40;;
71665;SDS011;59503;53.486;10.196;2023-04-03T14:04:57;2.55;;;0.60;;
71665;SDS011;59503;53.486;10.196;2023-04-03T14:07:25;2.20;;;0.70;;
71665;SDS011;59503;53.486;10.196;2023-04-03T14:09:51;2.45;;;0.55;;
71665;SDS011;59503;53.486;10.196;2023-04-03T14:12:25;1.73;;;0.67;;
71665;SDS011;59503;53.486;10.196;2023-04-03T14:14:53;5.10;;;0.70;;
71665;SDS011;59503;53.486;10.196;2023-04-03T14:17:21;2.90;;;0.73;;
71665;SDS011;59503;53.486;10.196;2023-04-03T14:19:49;2.75;;;0.70;;
71665;SDS011;59503;53.486;10.196;2023-04-03T14:22:16;2.35;;;0.50;;
71665;SDS011;59503;53.486;10.196;2023-04-03T14:24:44;2.27;;;0.60;;
71665;SDS011;59503;53.486;10.196;2023-04-03T14:27:15;0.98;;;0.50;;
71665;SDS011;59503;53.486;10.196;2023-04-03T14:29:47;3.17;;;0.50;;
71665;SDS011;59503;53.486;10.196;2023-04-03T14:32:14;2.53;;;0.65;;
71665;SDS011;59503;53.486;10.196;2023-04-03T14:34:41;4.72;;;0.80;;
71665;SDS011;59503;53.486;10.196;2023-04-03T14:37:12;1.43;;;0.60;;
71665;SDS011;59503;53.486;10.196;2023-04-03T14:39:40;2.10;;;0.65;;
71665;SDS011;59503;53.486;10.196;2023-04-03T14:42:06;0.95;;;0.40;;
71665;SDS011;59503;53.486;10.196;2023-04-03T14:44:37;4.03;;;0.60;;
71665;SDS011;59503;53.486;10.196;2023-04-03T14:47:02;1.27;;;0.50;;
71665;SDS011;59503;53.486;10.196;2023-04-03T14:49:28;6.85;;;1.60;;
71665;SDS011;59503;53.486;10.196;2023-04-03T14:51:54;2.88;;;0.68;;
71665;SDS011;59503;53.486;10.196;2023-04-03T14:54:21;2.93;;;0.50;;
71665;SDS011;59503;53.486;10.196;2023-04-03T14:56:52;2.22;;;0.40;;
71665;SDS011;59503;53.486;10.196;2023-04-03T14:59:19;3.97;;;0.60;;
71665;SDS011;59503;53.486;10.196;2023-04-03T15:01:46;3.95;;;0.50;;
71665;SDS011;59503;53.486;10.196;2023-04-03T15:04:16;3.20;;;0.70;;
71665;SDS011;59503;53.486;10.196;2023-04-03T15:06:46;3.07;;;0.63;;
71665;SDS011;59503;53.486;10.196;2023-04-03T15:11:46;3.78;;;0.63;;
71665;SDS011;59503;53.486;10.196;2023-04-03T15:14:12;1.13;;;0.50;;
71665;SDS011;59503;53.486;10.196;2023-04-03T15:16:37;1.97;;;0.70;;
71665;SDS011;59503;53.486;10.196;2023-04-03T15:19:03;3.43;;;0.90;;
71665;SDS011;59503;53.486;10.196;2023-04-03T15:21:28;1.60;;;0.60;;
71665;SDS011;59503;53.486;10.196;2023-04-03T15:23:53;3.33;;;0.60;;
71665;SDS011;59503;53.486;10.196;2023-04-03T15:26:19;1.30;;;0.40;;
71665;SDS011;59503;53.486;10.196;2023-04-03T15:28:45;2.35;;;0.50;;
71665;SDS011;59503;53.486;10.196;2023-04-03T15:31:11;1.50;;;0.60;;
71665;SDS011;59503;53.486;10.196;2023-04-03T15:33:36;2.63;;;0.80;;
71665;SDS011;59503;53.486;10.196;2023-04-03T15:36:02;2.97;;;0.80;;
71665;SDS011;59503;53.486;10.196;2023-04-03T15:38:28;2.72;;;0.80;;
71665;SDS011;59503;53.486;10.196;2023-04-03T15:40:54;2.20;;;0.50;;
71665;SDS011;59503;53.486;10.196;2023-04-03T15:43:20;2.75;;;0.70;;
71665;SDS011;59503;53.486;10.196;2023-04-03T15:45:47;2.55;;;0.85;;
71665;SDS011;59503;53.486;10.196;2023-04-03T15:48:13;1.37;;;0.50;;
71665;SDS011;59503;53.486;10.196;2023-04-03T15:50:39;1.75;;;0.50;;
71665;SDS011;59503;53.486;10.196;2023-04-03T15:53:04;3.58;;;0.80;;
71665;SDS011;59503;53.486;10.196;2023-04-03T15:55:31;1.30;;;0.67;;
71665;SDS011;59503;53.486;10.196;2023-04-03T15:57:58;3.03;;;1.10;;
71665;SDS011;59503;53.486;10.196;2023-04-03T16:00:24;3.47;;;0.95;;
71665;SDS011;59503;53.486;10.196;2023-04-03T16:02:51;1.80;;;0.50;;
71665;SDS011;59503;53.486;10.196;2023-04-03T16:05:20;3.60;;;0.60;;
71665;SDS011;59503;53.486;10.196;2023-04-03T16:07:46;2.05;;;0.55;;
71665;SDS011;59503;53.486;10.196;2023-04-03T16:10:12;2.10;;;0.50;;
71665;SDS011;59503;53.486;10.196;2023-04-03T16:12:40;3.93;;;0.43;;
71665;SDS011;59503;53.486;10.196;2023-04-03T16:15:06;2.83;;;0.70;;
71665;SDS011;59503;53.486;10.196;2023-04-03T16:17:32;3.10;;;0.80;;
71665;SDS011;59503;53.486;10.196;2023-04-03T16:20:00;1.20;;;0.40;;
71665;SDS011;59503;53.486;10.196;2023-04-03T16:22:26;2.90;;;0.40;;